Time;durP1;ratioP1;P1;durP2;ratioP2;P2;SDS_P1;SDS_P2;PMS_P1;PMS_P2;Temp;Humidity;BMP_temperature;BMP_pressure;BME280_temperature;BME280_humidity;BME280_pressure;Samples;Min_cycle;Max_cycle;Signal;HPM_P1;HPM_P2
2022/11/28 00:01:23;;;;;;;23.13;14.17;;;4.20;99.90;;;;;;5070413;28;20459;-68
2022/11/28 00:03:50;;;;;;;22.07;14.53;;;4.20;99.90;;;;;;5071079;28;20485;-68
2022/11/28 00:06:17;;;;;;;27.07;15.07;;;4.20;99.90;;;;;;5070404;28;20458;-68
2022/11/28 00:08:44;;;;;;;25.30;13.83;;;4.20;99.90;;;;;;5070247;28;20519;-68
2022/11/28 00:11:15;;;;;;;28.70;14.30;;;4.20;99.90;;;;;;5071076;28;20452;-68
2022/11/28 00:13:42;;;;;;;25.10;13.80;;;4.10;99.90;;;;;;5066919;28;20473;-68
2022/11/28 00:16:13;;;;;;;24.50;14.03;;;4.10;99.90;;;;;;5071265;28;20445;-68
2022/11/28 00:18:39;;;;;;;23.77;14.50;;;4.10;99.90;;;;;;5071169;28;20790;-68
2022/11/28 00:21:08;;;;;;;26.43;15.63;;;4.10;99.90;;;;;;5071078;28;20872;-68
2022/11/28 00:23:36;;;;;;;24.47;14.13;;;4.10;99.90;;;;;;5071049;28;20492;-68
2022/11/28 00:26:05;;;;;;;27.43;15.20;;;4.10;99.90;;;;;;5071023;28;20460;-68
2022/11/28 00:28:33;;;;;;;22.43;13.70;;;4.10;99.90;;;;;;5071234;28;20451;-69
2022/11/28 00:31:00;;;;;;;22.07;13.63;;;4.10;99.90;;;;;;5071153;28;20525;-68
2022/11/28 00:33:27;;;;;;;21.87;14.83;;;4.10;99.90;;;;;;5070499;28;20550;-69
2022/11/28 00:35:58;;;;;;;22.87;15.00;;;4.10;99.90;;;;;;5070789;28;20465;-68
2022/11/28 00:38:24;;;;;;;27.40;16.07;;;4.10;99.90;;;;;;5071371;28;20862;-68
2022/11/28 00:40:58;;;;;;;25.20;13.70;;;4.10;99.90;;;;;;5071056;28;20455;-68
2022/11/28 00:43:25;;;;;;;22.77;13.77;;;4.10;99.90;;;;;;5070868;28;20496;-69
2022/11/28 00:45:53;;;;;;;26.10;14.60;;;4.10;99.90;;;;;;5070566;28;20448;-68
2022/11/28 00:48:20;;;;;;;21.90;14.03;;;4.10;99.90;;;;;;5070662;28;20850;-68
2022/11/28 00:50:47;;;;;;;22.50;14.40;;;4.10;99.90;;;;;;5070914;28;21046;-68
2022/11/28 00:53:13;;;;;;;21.97;13.57;;;4.10;99.90;;;;;;5070739;28;20847;-68
2022/11/28 00:55:41;;;;;;;22.43;14.20;;;4.10;99.90;;;;;;5070887;28;20458;-68
2022/11/28 00:58:08;;;;;;;22.80;14.20;;;4.10;99.90;;;;;;5070835;28;20881;-68
2022/11/28 01:00:34;;;;;;;25.13;14.17;;;4.10;99.90;;;;;;5071059;28;20454;-68
2022/11/28 01:03:03;;;;;;;20.00;13.70;;;4.00;99.90;;;;;;5070421;28;20489;-69
2022/11/28 01:05:29;;;;;;;22.93;14.67;;;4.10;99.90;;;;;;5070894;28;20455;-68
2022/11/28 01:07:56;;;;;;;27.23;14.60;;;4.00;99.90;;;;;;5070931;28;20447;-68
2022/11/28 01:10:23;;;;;;;25.80;14.73;;;4.00;99.90;;;;;;5070889;28;20459;-68
2022/11/28 01:12:49;;;;;;;24.70;14.83;;;4.00;99.90;;;;;;5070189;28;20447;-68
2022/11/28 01:15:16;;;;;;;25.13;15.87;;;3.90;99.90;;;;;;5070922;28;20476;-68
2022/11/28 01:17:43;;;;;;;27.33;15.10;;;3.90;99.90;;;;;;5070355;28;20545;-68
2022/11/28 01:20:12;;;;;;;25.20;14.13;;;3.80;99.90;;;;;;5070891;28;20455;-68
2022/11/28 01:22:39;;;;;;;23.10;14.20;;;3.80;99.90;;;;;;5072648;28;20901;-68
2022/11/28 01:25:07;;;;;;;21.13;13.70;;;3.80;99.90;;;;;;5074362;28;20482;-68
2022/11/28 01:27:33;;;;;;;26.60;15.30;;;3.80;99.90;;;;;;5073681;28;20457;-68
2022/11/28 01:30:00;;;;;;;31.23;16.20;;;3.70;99.90;;;;;;5074391;28;20456;-68
2022/11/28 01:32:27;;;;;;;25.03;14.97;;;3.70;99.90;;;;;;5073641;28;20458;-68
2022/11/28 01:34:53;;;;;;;24.90;15.60;;;3.90;99.90;;;;;;5074237;28;20515;-68
2022/11/28 01:37:21;;;;;;;26.03;15.50;;;3.70;99.90;;;;;;5073938;28;20452;-68
2022/11/28 01:39:48;;;;;;;24.70;14.80;;;3.70;99.90;;;;;;5074122;28;20851;-68
2022/11/28 01:42:16;;;;;;;26.97;15.23;;;3.70;99.90;;;;;;5073296;28;20538;-68
2022/11/28 01:45:11;;;;;;;25.37;15.03;;;3.70;99.90;;;;;;5073862;28;20466;-68
2022/11/28 01:47:38;;;;;;;24.67;14.10;;;3.70;99.90;;;;;;5073611;28;20484;-68
2022/11/28 01:50:07;;;;;;;23.37;14.37;;;3.70;99.90;;;;;;5073635;28;20871;-68
2022/11/28 01:52:36;;;;;;;26.27;14.63;;;3.70;99.90;;;;;;5073564;28;20443;-68
2022/11/28 01:55:04;;;;;;;24.73;14.57;;;3.70;99.90;;;;;;5073526;28;20890;-68
2022/11/28 01:57:30;;;;;;;22.17;14.40;;;3.60;99.90;;;;;;5073619;28;20459;-68
2022/11/28 02:00:02;;;;;;;23.33;14.17;;;3.70;99.90;;;;;;5074020;28;20459;-68
2022/11/28 02:02:34;;;;;;;26.87;15.20;;;3.60;99.90;;;;;;5072694;28;20546;-68
2022/11/28 02:05:01;;;;;;;25.27;15.80;;;3.70;99.90;;;;;;5073616;28;20482;-68
2022/11/28 02:07:28;;;;;;;21.10;13.77;;;3.70;99.90;;;;;;5073405;28;20446;-68
2022/11/28 02:09:56;;;;;;;23.00;14.50;;;3.70;99.90;;;;;;5073202;28;20949;-68
2022/11/28 02:12:37;;;;;;;26.30;16.07;;;3.70;99.90;;;;;;5072529;28;20466;-68
2022/11/28 02:15:28;;;;;;;24.40;14.87;;;3.70;99.90;;;;;;5073487;28;20471;-68
2022/11/28 02:18:11;;;;;;;27.83;14.90;;;3.70;99.90;;;;;;5053330;28;20457;-68
2022/11/28 02:21:12;;;;;;;23.10;14.47;;;3.70;99.90;;;;;;5068581;28;20479;-68
2022/11/28 02:24:05;;;;;;;24.33;15.40;;;3.60;99.90;;;;;;5072975;28;20825;-68
2022/11/28 02:27:01;;;;;;;23.17;14.70;;;3.60;99.90;;;;;;5072649;28;20967;-68
2022/11/28 02:29:58;;;;;;;25.70;15.23;;;3.60;99.90;;;;;;5072908;28;20444;-68
2022/11/28 02:32:35;;;;;;;35.87;16.33;;;3.70;99.90;;;;;;5072427;28;20451;-68
2022/11/28 02:35:08;;;;;;;29.00;16.70;;;3.70;99.90;;;;;;5072845;28;20810;-68
2022/11/28 02:37:42;;;;;;;27.10;14.80;;;3.70;99.90;;;;;;5072766;28;20961;-68
2022/11/28 02:40:16;;;;;;;26.60;14.17;;;3.70;99.90;;;;;;5072816;28;20455;-68
2022/11/28 02:42:53;;;;;;;24.97;15.40;;;3.70;99.90;;;;;;5072690;28;20486;-68
2022/11/28 02:45:27;;;;;;;26.70;15.50;;;3.70;99.90;;;;;;5072768;28;20476;-68
2022/11/28 02:48:02;;;;;;;27.30;15.27;;;3.70;99.90;;;;;;5072301;28;20510;-68
2022/11/28 02:50:33;;;;;;;26.50;15.67;;;3.70;99.90;;;;;;5072821;28;20500;-68
2022/11/28 02:53:06;;;;;;;24.63;15.00;;;3.70;99.90;;;;;;5072430;28;20505;-68
2022/11/28 02:55:33;;;;;;;24.43;15.03;;;3.70;99.90;;;;;;5064790;28;20562;-68
2022/11/28 02:58:00;;;;;;;25.97;15.40;;;3.70;99.90;;;;;;5072494;28;20493;-68
2022/11/28 03:00:29;;;;;;;26.17;16.07;;;3.80;99.90;;;;;;5072335;28;20937;-68
2022/11/28 03:03:45;;;;;;;29.43;16.40;;;3.70;99.90;;;;;;5072038;28;20492;-69
2022/11/28 03:06:20;;;;;;;26.03;14.90;;;3.70;99.90;;;;;;5049861;28;20442;-68
2022/11/28 03:09:02;;;;;;;27.63;16.27;;;3.60;99.90;;;;;;5067912;28;20452;-68
2022/11/28 03:11:42;;;;;;;25.60;17.20;;;3.60;99.90;;;;;;5072435;28;20448;-69
2022/11/28 03:14:17;;;;;;;27.77;16.07;;;3.60;99.90;;;;;;5071982;28;20464;-68
2022/11/28 03:16:50;;;;;;;29.90;17.53;;;3.60;99.90;;;;;;5072054;28;20474;-68
2022/11/28 03:19:22;;;;;;;28.63;16.70;;;3.60;99.90;;;;;;5072027;28;20850;-68
2022/11/28 03:21:59;;;;;;;30.47;16.63;;;3.60;99.90;;;;;;5072286;28;20447;-68
2022/11/28 03:24:33;;;;;;;27.70;16.63;;;3.60;99.90;;;;;;5071667;28;20546;-68
2022/11/28 03:27:06;;;;;;;28.07;16.50;;;3.60;99.90;;;;;;5071856;28;20470;-68
2022/11/28 03:29:37;;;;;;;32.30;16.90;;;3.70;99.90;;;;;;5071588;28;20864;-68
2022/11/28 03:32:08;;;;;;;29.77;15.67;;;3.70;99.90;;;;;;5071847;28;20948;-68
2022/11/28 03:34:38;;;;;;;32.57;17.50;;;3.60;99.90;;;;;;5071727;28;20904;-68
2022/11/28 03:37:11;;;;;;;36.70;17.77;;;3.70;99.90;;;;;;5072330;28;20441;-68
2022/11/28 03:39:41;;;;;;;27.13;15.77;;;3.60;99.90;;;;;;5071656;28;20939;-68
2022/11/28 03:42:11;;;;;;;29.57;17.53;;;3.60;99.90;;;;;;5071058;28;20469;-68
2022/11/28 03:44:43;;;;;;;27.60;15.50;;;3.60;99.90;;;;;;5070768;28;20499;-68
2022/11/28 03:47:10;;;;;;;27.37;16.80;;;3.70;99.90;;;;;;5071890;28;20800;-68
2022/11/28 03:49:40;;;;;;;30.60;16.80;;;3.70;99.90;;;;;;5071696;28;20451;-69
2022/11/28 03:52:11;;;;;;;30.30;16.40;;;3.70;99.90;;;;;;5071168;28;20464;-68
2022/11/28 03:54:47;;;;;;;32.07;17.00;;;3.70;99.90;;;;;;5071241;28;20467;-68
2022/11/28 03:57:20;;;;;;;28.80;16.50;;;3.70;99.90;;;;;;5071752;28;20479;-68
2022/11/28 03:59:49;;;;;;;29.47;16.30;;;3.70;99.90;;;;;;5071555;28;20449;-68
2022/11/28 04:02:23;;;;;;;32.70;18.23;;;3.70;99.90;;;;;;5071252;28;20451;-68
2022/11/28 04:04:57;;;;;;;27.13;16.07;;;3.60;99.90;;;;;;5071443;28;20493;-68
2022/11/28 04:07:32;;;;;;;27.50;15.87;;;3.60;99.90;;;;;;5071531;28;20504;-68
2022/11/28 04:10:06;;;;;;;28.40;16.00;;;3.60;99.90;;;;;;5071201;28;20494;-68
2022/11/28 04:12:45;;;;;;;30.57;17.20;;;3.60;99.90;;;;;;5071187;28;20474;-68
2022/11/28 04:15:17;;;;;;;28.87;17.13;;;3.60;99.90;;;;;;5071400;28;20476;-68
2022/11/28 04:17:51;;;;;;;30.20;16.03;;;3.60;99.90;;;;;;5070829;28;20464;-68
2022/11/28 04:20:26;;;;;;;29.47;18.50;;;3.60;99.90;;;;;;5071251;28;20457;-68
2022/11/28 04:22:59;;;;;;;28.77;17.30;;;3.60;99.90;;;;;;5070825;28;20782;-68
2022/11/28 04:25:27;;;;;;;27.87;17.80;;;3.50;99.90;;;;;;5071098;28;20473;-68
2022/11/28 04:28:00;;;;;;;30.70;17.70;;;3.50;99.90;;;;;;5071259;28;20455;-68
2022/11/28 04:30:27;;;;;;;33.90;18.93;;;3.50;99.90;;;;;;5071083;28;20964;-68
2022/11/28 04:32:58;;;;;;;30.73;16.57;;;3.50;99.90;;;;;;5070657;28;21411;-68
2022/11/28 04:35:29;;;;;;;35.67;17.77;;;3.50;99.90;;;;;;5071248;28;20512;-68
2022/11/28 04:38:00;;;;;;;29.37;16.47;;;3.60;99.90;;;;;;5070985;28;20505;-68
2022/11/28 04:40:29;;;;;;;33.60;17.70;;;3.50;99.90;;;;;;5071372;28;20464;-68
2022/11/28 04:42:58;;;;;;;32.47;18.53;;;3.60;99.90;;;;;;5070601;28;20453;-68
2022/11/28 04:45:29;;;;;;;32.10;17.07;;;3.60;99.90;;;;;;5070859;28;20475;-68
2022/11/28 04:47:57;;;;;;;29.13;18.03;;;3.60;99.90;;;;;;5070735;28;20453;-68
2022/11/28 04:50:29;;;;;;;37.23;17.10;;;3.60;99.90;;;;;;5071124;28;20453;-69
2022/11/28 04:53:04;;;;;;;36.03;18.13;;;3.50;99.90;;;;;;5070866;28;20850;-68
2022/11/28 04:55:38;;;;;;;33.80;18.40;;;3.50;99.90;;;;;;5071671;28;20464;-69
2022/11/28 04:58:11;;;;;;;28.83;17.10;;;3.50;99.90;;;;;;5074693;28;20804;-67
2022/11/28 05:00:39;;;;;;;33.60;17.07;;;3.50;99.90;;;;;;5074869;28;20536;-67
2022/11/28 05:03:06;;;;;;;32.77;18.03;;;3.60;99.90;;;;;;5074004;28;21017;-67
2022/11/28 05:05:43;;;;;;;31.57;18.17;;;3.50;99.90;;;;;;5074425;28;20458;-67
2022/11/28 05:08:11;;;;;;;30.90;16.30;;;3.60;99.90;;;;;;5074695;28;20449;-67
2022/11/28 05:10:38;;;;;;;30.80;18.30;;;3.60;99.90;;;;;;5073872;28;20486;-67
2022/11/28 05:13:04;;;;;;;33.20;18.37;;;3.60;99.90;;;;;;5074606;28;20811;-67
2022/11/28 05:15:31;;;;;;;30.20;17.80;;;3.60;99.90;;;;;;5074258;28;20445;-68
2022/11/28 05:17:58;;;;;;;33.67;19.03;;;3.50;99.90;;;;;;5074418;28;20941;-67
2022/11/28 05:20:25;;;;;;;30.40;17.47;;;3.50;99.90;;;;;;5074325;28;20833;-67
2022/11/28 05:22:52;;;;;;;33.20;17.97;;;3.50;99.90;;;;;;5074077;28;20493;-68
2022/11/28 05:25:20;;;;;;;32.60;18.17;;;3.50;99.90;;;;;;5073818;28;20543;-68
2022/11/28 05:27:47;;;;;;;32.73;18.70;;;3.50;99.90;;;;;;5074491;28;20556;-68
2022/11/28 05:30:14;;;;;;;32.57;19.10;;;3.50;99.90;;;;;;5073856;28;20973;-68
2022/11/28 05:32:41;;;;;;;35.90;19.30;;;3.50;99.90;;;;;;5074070;28;20467;-68
2022/11/28 05:35:08;;;;;;;37.10;20.10;;;3.50;99.90;;;;;;5074049;28;20479;-68
2022/11/28 05:37:34;;;;;;;33.03;19.10;;;3.50;99.90;;;;;;5074164;28;20449;-68
2022/11/28 05:40:01;;;;;;;34.13;19.60;;;3.50;99.90;;;;;;5073712;28;20452;-68
2022/11/28 05:42:32;;;;;;;35.73;19.20;;;3.50;99.90;;;;;;5073480;28;22024;-68
2022/11/28 05:44:58;;;;;;;35.70;19.90;;;3.50;99.90;;;;;;5073607;28;21020;-68
2022/11/28 05:47:25;;;;;;;38.73;19.93;;;3.50;99.90;;;;;;5073950;28;20456;-67
2022/11/28 05:49:52;;;;;;;36.17;19.70;;;3.50;99.90;;;;;;5073603;28;20470;-68
2022/11/28 05:52:18;;;;;;;32.33;18.50;;;3.50;99.90;;;;;;5073279;28;20885;-68
2022/11/28 05:54:45;;;;;;;31.70;18.50;;;3.50;99.90;;;;;;5073526;28;20490;-68
2022/11/28 05:57:12;;;;;;;34.83;18.20;;;3.50;99.90;;;;;;5073746;28;20464;-68
2022/11/28 05:59:40;;;;;;;35.17;19.00;;;3.50;99.90;;;;;;5073629;28;20445;-68
2022/11/28 06:02:06;;;;;;;35.90;18.97;;;3.60;99.90;;;;;;5073227;28;20450;-68
2022/11/28 06:04:33;;;;;;;36.90;19.70;;;3.60;99.90;;;;;;5073057;28;20990;-68
2022/11/28 06:07:00;;;;;;;34.40;19.37;;;3.60;99.90;;;;;;5072894;28;20473;-68
2022/11/28 06:09:26;;;;;;;35.23;19.57;;;3.60;99.90;;;;;;5073526;28;20495;-68
2022/11/28 06:11:53;;;;;;;36.03;20.00;;;3.60;99.90;;;;;;5073219;28;20454;-68
2022/11/28 06:14:20;;;;;;;37.40;18.40;;;3.60;99.90;;;;;;5072741;28;20988;-68
2022/11/28 06:16:48;;;;;;;36.70;18.63;;;3.60;99.90;;;;;;5073308;28;20450;-67
2022/11/28 06:19:15;;;;;;;44.23;21.47;;;3.60;99.90;;;;;;5072136;28;20451;-67
2022/11/28 06:21:42;;;;;;;39.50;21.23;;;3.60;99.90;;;;;;5071943;28;20866;-67
2022/11/28 06:24:09;;;;;;;36.90;19.80;;;3.60;99.90;;;;;;5076686;28;20481;-67
2022/11/28 06:26:36;;;;;;;42.67;20.67;;;3.60;99.90;;;;;;5072487;28;20461;-67
2022/11/28 06:29:03;;;;;;;36.30;18.83;;;3.60;99.90;;;;;;5073037;28;20454;-67
2022/11/28 06:31:30;;;;;;;36.83;20.63;;;3.60;99.90;;;;;;5073001;28;20458;-67
2022/11/28 06:33:58;;;;;;;40.17;21.20;;;3.60;99.90;;;;;;5072490;28;20469;-67
2022/11/28 06:36:26;;;;;;;35.53;19.90;;;3.70;99.90;;;;;;5073123;28;20456;-67
2022/11/28 06:38:53;;;;;;;38.90;21.57;;;3.60;99.90;;;;;;5073350;28;20445;-67
2022/11/28 06:41:21;;;;;;;37.67;20.17;;;3.70;99.90;;;;;;5072753;28;20480;-67
2022/11/28 06:43:48;;;;;;;37.67;19.77;;;3.60;99.90;;;;;;5072197;28;20464;-68
2022/11/28 06:46:17;;;;;;;37.73;19.53;;;3.60;99.90;;;;;;5072653;28;20940;-67
2022/11/28 06:48:44;;;;;;;43.63;20.63;;;3.60;99.90;;;;;;5072922;28;20553;-68
2022/11/28 06:51:12;;;;;;;40.37;19.77;;;3.60;99.90;;;;;;5072593;28;20449;-68
2022/11/28 06:53:39;;;;;;;34.73;19.07;;;3.60;99.90;;;;;;5072144;28;20468;-67
2022/11/28 06:56:07;;;;;;;40.13;19.27;;;3.60;99.90;;;;;;5071844;28;20802;-67
2022/11/28 06:58:34;;;;;;;37.63;18.83;;;3.60;99.90;;;;;;5070438;28;20449;-67
2022/11/28 07:01:06;;;;;;;35.60;17.97;;;3.60;99.90;;;;;;5072285;28;20449;-69
2022/11/28 07:03:33;;;;;;;40.40;19.57;;;3.60;99.90;;;;;;5071634;28;20554;-69
2022/11/28 07:06:00;;;;;;;42.00;21.20;;;3.60;99.90;;;;;;5071655;28;20507;-69
2022/11/28 07:08:30;;;;;;;39.50;20.30;;;3.70;99.90;;;;;;5072382;28;20478;-69
2022/11/28 07:10:57;;;;;;;38.80;20.80;;;3.70;99.90;;;;;;5071937;28;20465;-69
2022/11/28 07:13:24;;;;;;;39.40;20.67;;;3.70;99.90;;;;;;5071934;28;20569;-69
2022/11/28 07:15:51;;;;;;;39.33;20.80;;;3.70;99.90;;;;;;5071956;28;20801;-69
2022/11/28 07:18:18;;;;;;;34.33;18.57;;;3.70;99.90;;;;;;5072038;28;20448;-69
2022/11/28 07:20:45;;;;;;;35.57;18.90;;;3.70;99.90;;;;;;5071882;28;20499;-69
2022/11/28 07:23:11;;;;;;;35.87;18.40;;;3.70;99.90;;;;;;5071151;28;20445;-69
2022/11/28 07:25:39;;;;;;;36.40;19.47;;;3.70;99.90;;;;;;5071584;28;20492;-69
2022/11/28 07:28:06;;;;;;;38.80;20.10;;;3.70;99.90;;;;;;5071536;28;20472;-69
2022/11/28 07:30:33;;;;;;;37.87;20.20;;;3.70;99.90;;;;;;5071750;28;20460;-69
2022/11/28 07:33:00;;;;;;;38.33;19.97;;;3.70;99.90;;;;;;5071379;28;20453;-69
2022/11/28 07:35:27;;;;;;;36.97;20.07;;;3.70;99.90;;;;;;5072100;28;20814;-69
2022/11/28 07:37:54;;;;;;;36.57;19.10;;;3.70;99.90;;;;;;5071452;28;20452;-69
2022/11/28 07:40:21;;;;;;;38.43;19.50;;;3.70;99.90;;;;;;5071760;28;20572;-69
2022/11/28 07:42:49;;;;;;;35.73;19.10;;;3.70;99.90;;;;;;5071228;28;20738;-70
2022/11/28 07:45:16;;;;;;;36.20;19.50;;;3.60;99.90;;;;;;5069916;28;20704;-71
2022/11/28 07:47:43;;;;;;;46.07;21.77;;;3.60;99.90;;;;;;5065796;28;20511;-69
2022/11/28 07:50:10;;;;;;;40.23;20.30;;;3.60;99.90;;;;;;5069307;28;20461;-69
2022/11/28 07:52:37;;;;;;;38.27;19.90;;;3.70;99.90;;;;;;5070631;28;20557;-69
2022/11/28 07:55:04;;;;;;;35.27;19.27;;;3.70;99.90;;;;;;5069693;28;20471;-69
2022/11/28 07:57:31;;;;;;;38.67;18.50;;;3.70;99.90;;;;;;5069477;28;20979;-69
2022/11/28 08:00:00;;;;;;;35.80;18.10;;;3.70;99.90;;;;;;5070463;28;20544;-68
2022/11/28 08:02:31;;;;;;;34.63;18.37;;;3.70;99.90;;;;;;5068973;28;20477;-69
2022/11/28 08:04:58;;;;;;;34.37;19.17;;;3.70;99.90;;;;;;5070540;28;21281;-67
2022/11/28 08:07:25;;;;;;;36.47;20.13;;;3.70;99.90;;;;;;5069646;28;20449;-69
2022/11/28 08:09:51;;;;;;;38.73;19.17;;;3.70;99.90;;;;;;5065198;28;20453;-69
2022/11/28 08:12:18;;;;;;;37.03;19.40;;;3.70;99.90;;;;;;5067340;28;20452;-68
2022/11/28 08:14:45;;;;;;;33.17;19.40;;;3.60;99.90;;;;;;5067606;28;20987;-69
2022/11/28 08:17:13;;;;;;;38.70;19.97;;;3.60;99.90;;;;;;5067463;28;20564;-69
2022/11/28 08:19:40;;;;;;;33.37;18.63;;;3.70;99.90;;;;;;5067131;28;20441;-68
2022/11/28 08:22:07;;;;;;;39.63;19.37;;;3.70;99.90;;;;;;5066524;28;20996;-69
2022/11/28 08:24:34;;;;;;;37.40;19.23;;;3.80;99.90;;;;;;5066101;28;20481;-69
2022/11/28 08:27:00;;;;;;;32.67;19.17;;;3.70;99.90;;;;;;5066620;28;20514;-69
2022/11/28 08:29:28;;;;;;;40.27;19.70;;;3.70;99.90;;;;;;5066445;28;20456;-69
2022/11/28 08:31:54;;;;;;;41.43;20.57;;;3.70;99.90;;;;;;5069071;28;20463;-69
2022/11/28 08:34:22;;;;;;;36.87;19.17;;;3.80;99.90;;;;;;5070473;28;20465;-69
2022/11/28 08:36:49;;;;;;;40.50;20.20;;;3.80;99.90;;;;;;5070465;28;20877;-69
2022/11/28 08:39:16;;;;;;;34.97;20.10;;;3.80;99.90;;;;;;5070999;28;20461;-68
2022/11/28 08:41:43;;;;;;;39.27;20.20;;;3.80;99.90;;;;;;5072847;28;20458;-68
2022/11/28 08:44:09;;;;;;;42.20;20.50;;;3.80;99.90;;;;;;5072417;28;20470;-69
2022/11/28 08:46:36;;;;;;;40.97;20.13;;;3.80;99.90;;;;;;5074311;28;20479;-68
2022/11/28 08:49:03;;;;;;;44.23;20.23;;;3.90;99.90;;;;;;5074429;28;20450;-68
2022/11/28 08:51:30;;;;;;;40.10;19.20;;;3.90;99.90;;;;;;5073925;28;20456;-68
2022/11/28 08:53:57;;;;;;;43.80;21.80;;;3.80;99.90;;;;;;5073399;28;20528;-67
2022/11/28 08:56:24;;;;;;;38.47;20.30;;;3.90;99.90;;;;;;5073188;28;20820;-68
2022/11/28 08:58:51;;;;;;;36.13;20.53;;;3.90;99.90;;;;;;5072160;28;20955;-67
2022/11/28 09:01:19;;;;;;;41.03;21.53;;;3.90;99.90;;;;;;5074103;28;20458;-67
2022/11/28 09:03:46;;;;;;;37.93;20.57;;;3.90;99.90;;;;;;5072445;28;20490;-67
2022/11/28 09:06:14;;;;;;;36.97;20.60;;;3.90;99.90;;;;;;5072286;28;21169;-67
2022/11/28 09:08:43;;;;;;;41.77;21.33;;;3.90;99.90;;;;;;5071959;28;20459;-66
2022/11/28 09:11:11;;;;;;;39.87;20.67;;;4.00;99.90;;;;;;5072899;28;20865;-66
2022/11/28 09:13:38;;;;;;;42.20;21.50;;;4.00;99.90;;;;;;5072069;28;20465;-67
2022/11/28 09:16:06;;;;;;;45.57;20.30;;;3.90;99.90;;;;;;5071934;28;20447;-67
2022/11/28 09:18:33;;;;;;;41.70;22.23;;;3.90;99.90;;;;;;5072560;28;20448;-67
2022/11/28 09:21:00;;;;;;;45.33;22.17;;;3.90;99.90;;;;;;5073884;28;20456;-67
2022/11/28 09:23:28;;;;;;;44.23;20.57;;;4.00;99.90;;;;;;5073037;28;20483;-67
2022/11/28 09:25:56;;;;;;;43.33;22.63;;;4.00;99.90;;;;;;5073802;28;20493;-67
2022/11/28 09:28:23;;;;;;;38.37;21.40;;;3.90;99.90;;;;;;5073124;28;21122;-68
2022/11/28 09:30:50;;;;;;;43.47;22.07;;;3.90;99.90;;;;;;5072914;28;20974;-67
2022/11/28 09:33:16;;;;;;;38.70;20.83;;;4.00;99.90;;;;;;5073207;28;20453;-68
2022/11/28 09:35:43;;;;;;;38.03;20.33;;;4.00;99.90;;;;;;5073173;28;20532;-67
2022/11/28 09:38:10;;;;;;;41.87;21.50;;;4.00;99.90;;;;;;5072723;28;20459;-67
2022/11/28 09:40:39;;;;;;;47.20;20.87;;;4.10;99.90;;;;;;5073135;28;20455;-67
2022/11/28 09:43:15;;;;;;;43.10;22.87;;;4.10;99.90;;;;;;5071701;28;20461;-67
2022/11/28 09:45:43;;;;;;;49.47;21.37;;;4.10;99.90;;;;;;5072713;28;20499;-67
2022/11/28 09:48:22;;;;;;;37.77;20.67;;;4.10;99.90;;;;;;5068714;28;20454;-67
2022/11/28 09:50:53;;;;;;;43.43;22.33;;;4.10;99.90;;;;;;5074089;28;20841;-67
2022/11/28 09:53:26;;;;;;;52.10;20.80;;;4.10;99.90;;;;;;5073571;28;20489;-67
2022/11/28 09:55:58;;;;;;;43.83;20.13;;;4.10;99.90;;;;;;5073282;28;20825;-67
2022/11/28 09:58:31;;;;;;;39.57;20.27;;;4.20;99.90;;;;;;5070694;28;20455;-68
2022/11/28 10:01:15;;;;;;;35.97;19.50;;;4.20;99.90;;;;;;5073870;28;20477;-68
2022/11/28 10:03:48;;;;;;;38.83;19.93;;;4.20;99.90;;;;;;5073558;28;20500;-68
2022/11/28 10:06:20;;;;;;;34.87;19.80;;;4.20;99.90;;;;;;5072661;28;20538;-68
2022/11/28 10:09:28;;;;;;;35.30;19.07;;;4.20;99.90;;;;;;5073374;28;20459;-68
2022/11/28 10:12:06;;;;;;;38.17;20.47;;;4.30;99.90;;;;;;5073296;28;20950;-68
2022/11/28 10:15:00;;;;;;;37.80;19.07;;;4.30;99.90;;;;;;5073499;28;20466;-68
2022/11/28 10:17:36;;;;;;;37.30;18.70;;;4.30;99.90;;;;;;5072613;28;20466;-67
2022/11/28 10:20:08;;;;;;;34.80;20.27;;;4.40;99.90;;;;;;5072789;28;20453;-68
2022/11/28 10:22:41;;;;;;;34.13;19.00;;;4.40;99.90;;;;;;5073533;28;20457;-68
2022/11/28 10:25:17;;;;;;;33.67;17.60;;;4.40;99.90;;;;;;5073244;28;20491;-68
2022/11/28 10:27:44;;;;;;;34.23;17.90;;;4.40;99.90;;;;;;5073141;28;20953;-68
2022/11/28 10:30:20;;;;;;;37.60;20.37;;;4.40;99.90;;;;;;5072854;28;20955;-67
2022/11/28 10:32:53;;;;;;;40.10;20.40;;;4.50;99.90;;;;;;5073294;28;20458;-68
2022/11/28 10:35:25;;;;;;;40.40;20.23;;;4.50;99.90;;;;;;5072877;28;20466;-68
2022/11/28 10:37:52;;;;;;;36.90;20.40;;;4.60;99.90;;;;;;5072483;28;20456;-68
2022/11/28 10:40:27;;;;;;;38.67;20.50;;;4.60;99.90;;;;;;5073015;28;20524;-68
2022/11/28 10:43:00;;;;;;;46.73;21.63;;;4.70;99.90;;;;;;5072033;28;20952;-68
2022/11/28 10:45:35;;;;;;;38.33;19.50;;;4.70;99.90;;;;;;5072275;28;20517;-68
2022/11/28 10:48:09;;;;;;;39.93;20.13;;;4.80;99.90;;;;;;5072519;28;20458;-68
2022/11/28 10:50:46;;;;;;;38.03;20.90;;;4.80;99.90;;;;;;5072780;28;20453;-68
2022/11/28 10:53:20;;;;;;;40.50;19.80;;;4.80;99.90;;;;;;5071603;28;20448;-68
2022/11/28 10:56:00;;;;;;;39.67;20.93;;;4.80;99.90;;;;;;5072559;28;20455;-68
2022/11/28 10:58:31;;;;;;;35.70;18.73;;;4.80;99.90;;;;;;5072407;28;20473;-68
2022/11/28 11:01:00;;;;;;;35.27;18.90;;;4.80;99.90;;;;;;5072526;28;20513;-68
2022/11/28 11:03:30;;;;;;;35.13;19.47;;;4.80;99.90;;;;;;5072210;28;20468;-68
2022/11/28 11:05:57;;;;;;;39.90;19.80;;;4.80;99.90;;;;;;5072082;28;20485;-67
2022/11/28 11:08:25;;;;;;;37.37;19.67;;;4.90;99.90;;;;;;5072150;28;20454;-68
2022/11/28 11:10:59;;;;;;;38.00;19.77;;;4.90;99.90;;;;;;5072219;28;20449;-67
2022/11/28 11:13:28;;;;;;;39.57;20.73;;;5.00;99.90;;;;;;5072171;28;20486;-67
2022/11/28 11:16:01;;;;;;;32.47;19.07;;;5.00;99.90;;;;;;5072144;28;20444;-67
2022/11/28 11:18:30;;;;;;;32.50;17.47;;;5.10;99.90;;;;;;5072264;28;20655;-68
2022/11/28 11:21:14;;;;;;;34.53;18.30;;;5.10;99.90;;;;;;5071817;28;20455;-68
2022/11/28 11:23:43;;;;;;;38.97;19.00;;;5.10;99.90;;;;;;5071368;28;20481;-68
2022/11/28 11:26:21;;;;;;;32.83;18.63;;;5.10;99.90;;;;;;5072002;28;20487;-68
2022/11/28 11:28:50;;;;;;;36.87;19.37;;;5.20;99.90;;;;;;5051866;28;21016;-67
2022/11/28 11:31:24;;;;;;;36.90;18.37;;;5.20;99.90;;;;;;5070838;28;20487;-68
2022/11/28 11:33:53;;;;;;;36.43;18.60;;;5.20;99.90;;;;;;5071125;28;20479;-67
2022/11/28 11:36:24;;;;;;;33.70;18.87;;;5.20;99.90;;;;;;5072056;28;20443;-68
2022/11/28 11:38:51;;;;;;;36.10;19.70;;;5.20;99.90;;;;;;5071898;28;20894;-67
2022/11/28 11:41:29;;;;;;;35.10;17.80;;;5.20;99.90;;;;;;5071908;28;20504;-67
2022/11/28 11:43:56;;;;;;;40.37;19.90;;;5.20;99.90;;;;;;5070348;28;20475;-67
2022/11/28 11:46:24;;;;;;;38.83;18.73;;;5.20;99.90;;;;;;5070806;28;20505;-67
2022/11/28 11:48:52;;;;;;;39.87;20.63;;;5.30;99.90;;;;;;5071923;28;20495;-67
2022/11/28 11:51:25;;;;;;;38.60;19.37;;;5.40;99.90;;;;;;5071847;28;20638;-67
2022/11/28 11:54:05;;;;;;;42.70;19.43;;;5.40;99.90;;;;;;5071186;28;20469;-67
2022/11/28 11:56:36;;;;;;;38.63;19.37;;;5.40;99.90;;;;;;5071221;28;20455;-67
2022/11/28 11:59:10;;;;;;;41.10;20.93;;;5.50;99.90;;;;;;5070223;28;20831;-67
2022/11/28 12:01:40;;;;;;;36.67;19.53;;;5.50;99.90;;;;;;5070987;28;20819;-67
2022/11/28 12:04:13;;;;;;;32.27;18.37;;;5.50;99.90;;;;;;5070969;28;20479;-68
2022/11/28 12:06:45;;;;;;;33.07;20.07;;;5.50;99.90;;;;;;5070396;28;20485;-67
2022/11/28 12:09:29;;;;;;;36.50;19.60;;;5.50;99.90;;;;;;5071632;28;20446;-67
2022/11/28 12:12:00;;;;;;;35.20;19.10;;;5.50;99.90;;;;;;5070932;28;20459;-67
2022/11/28 12:14:29;;;;;;;42.10;20.47;;;5.50;99.90;;;;;;5071000;28;20479;-67
2022/11/28 12:17:15;;;;;;;42.63;20.03;;;5.50;99.90;;;;;;5070294;28;20576;-67
2022/11/28 12:19:54;;;;;;;36.23;19.10;;;5.40;99.90;;;;;;5070860;28;20455;-68
2022/11/28 12:22:32;;;;;;;41.13;21.33;;;5.40;99.90;;;;;;5070482;28;20871;-68
2022/11/28 12:25:05;;;;;;;39.73;19.67;;;5.50;99.90;;;;;;5071264;28;20533;-68
2022/11/28 12:27:51;;;;;;;39.20;19.40;;;5.40;99.90;;;;;;5070866;28;20486;-68
2022/11/28 12:30:26;;;;;;;38.00;19.70;;;5.50;99.90;;;;;;5071228;28;20670;-68
2022/11/28 12:33:07;;;;;;;38.93;20.33;;;5.40;99.90;;;;;;5071212;28;20449;-68
2022/11/28 12:35:39;;;;;;;38.83;21.47;;;5.40;99.90;;;;;;5070568;28;20458;-68
2022/11/28 12:38:17;;;;;;;38.63;20.87;;;5.40;99.90;;;;;;5070481;28;20539;-68
2022/11/28 12:41:00;;;;;;;38.00;19.90;;;5.40;99.90;;;;;;5071144;28;20458;-68
2022/11/28 12:43:40;;;;;;;41.30;22.23;;;5.40;99.90;;;;;;5069913;28;20828;-69
2022/11/28 12:46:17;;;;;;;39.33;20.77;;;5.40;99.90;;;;;;5070756;28;20486;-68
2022/11/28 12:49:09;;;;;;;38.53;21.70;;;5.40;99.90;;;;;;5070984;28;20458;-67
2022/11/28 12:51:45;;;;;;;33.97;19.73;;;5.40;99.90;;;;;;5071099;28;20458;-68
2022/11/28 12:54:32;;;;;;;39.83;21.23;;;5.40;99.90;;;;;;5070484;28;20467;-68